Time;durP1;ratioP1;P1;durP2;ratioP2;P2;SDS_P1;SDS_P2;PMS_P1;PMS_P2;Temp;Humidity;BMP_temperature;BMP_pressure;BME280_temperature;BME280_humidity;BME280_pressure;Samples;Min_cycle;Max_cycle;Signal;HPM_P1;HPM_P2
2021/05/25 00:01:07;;;;;;;2.13;0.45;;;;;;;;;;4973299;28;20051;-73
2021/05/25 00:03:33;;;;;;;1.75;0.73;;;;;;;;;;4999034;28;20070;-72
2021/05/25 00:06:00;;;;;;;1.27;0.57;;;;;;;;;;4982396;28;20105;-72
2021/05/25 00:08:26;;;;;;;0.90;0.50;;;;;;;;;;4981327;28;20509;-73
2021/05/25 00:10:53;;;;;;;2.20;0.60;;;;;;;;;;4979412;28;20054;-73
2021/05/25 00:13:20;;;;;;;0.68;0.50;;;;;;;;;;4960225;28;20105;-72
2021/05/25 00:15:52;;;;;;;3.00;0.90;;;;;;;;;;4978448;28;20078;-73
2021/05/25 00:18:20;;;;;;;0.50;0.40;;;;;;;;;;4999188;28;20109;-73
2021/05/25 00:20:47;;;;;;;0.95;0.60;;;;;;;;;;4982970;28;20059;-73
2021/05/25 00:23:15;;;;;;;0.75;0.40;;;;;;;;;;4967187;28;20082;-73
2021/05/25 00:25:42;;;;;;;1.13;0.77;;;;;;;;;;4981339;28;20101;-72
2021/05/25 00:28:08;;;;;;;1.02;0.47;;;;;;;;;;5002022;28;20058;-73
2021/05/25 00:30:35;;;;;;;2.53;0.40;;;;;;;;;;4984574;28;20051;-72
2021/05/25 00:33:02;;;;;;;1.85;0.60;;;;;;;;;;4997681;28;20089;-72
2021/05/25 00:35:33;;;;;;;1.88;0.60;;;;;;;;;;4982893;28;20485;-72
2021/05/25 00:38:00;;;;;;;1.08;0.40;;;;;;;;;;4984196;28;20047;-71
2021/05/25 00:40:27;;;;;;;0.88;0.40;;;;;;;;;;4987538;28;20054;-72
2021/05/25 00:42:54;;;;;;;0.73;0.43;;;;;;;;;;5000502;28;20078;-72
2021/05/25 00:45:20;;;;;;;2.55;0.68;;;;;;;;;;4983614;28;20055;-72
2021/05/25 00:47:47;;;;;;;0.95;0.50;;;;;;;;;;4981421;28;20054;-72
2021/05/25 00:50:17;;;;;;;2.75;0.77;;;;;;;;;;4997180;28;20097;-73
2021/05/25 00:52:46;;;;;;;1.65;0.40;;;;;;;;;;4981628;28;20047;-72
2021/05/25 00:55:21;;;;;;;2.03;0.50;;;;;;;;;;4980735;28;20062;-72
2021/05/25 00:57:48;;;;;;;2.33;0.85;;;;;;;;;;4980424;28;20055;-72
2021/05/25 01:00:17;;;;;;;1.90;0.90;;;;;;;;;;4981627;28;20074;-73
2021/05/25 01:02:44;;;;;;;1.98;0.60;;;;;;;;;;4978866;28;20047;-72
2021/05/25 01:05:12;;;;;;;1.08;0.40;;;;;;;;;;4994803;28;20465;-72
2021/05/25 01:07:39;;;;;;;0.75;0.50;;;;;;;;;;4978308;28;20055;-71
2021/05/25 01:10:07;;;;;;;4.60;0.70;;;;;;;;;;4963721;28;20070;-73
2021/05/25 01:12:48;;;;;;;2.75;0.90;;;;;;;;;;4985711;28;20051;-73
2021/05/25 01:15:15;;;;;;;1.50;0.60;;;;;;;;;;4982180;28;20055;-73
2021/05/25 01:17:42;;;;;;;0.57;0.38;;;;;;;;;;4984437;28;20434;-72
2021/05/25 01:20:09;;;;;;;3.58;0.63;;;;;;;;;;4976985;28;20561;-72
2021/05/25 01:22:35;;;;;;;1.17;0.55;;;;;;;;;;4980034;28;20050;-73
2021/05/25 01:25:13;;;;;;;2.38;0.50;;;;;;;;;;4972604;28;20051;-72
2021/05/25 01:27:40;;;;;;;0.68;0.45;;;;;;;;;;4975568;28;20055;-73
2021/05/25 01:30:09;;;;;;;1.35;0.60;;;;;;;;;;4971353;28;20561;-73
2021/05/25 01:32:36;;;;;;;1.13;0.82;;;;;;;;;;4955780;28;20051;-73
2021/05/25 01:35:04;;;;;;;1.63;0.50;;;;;;;;;;4987416;28;20051;-73
2021/05/25 01:37:30;;;;;;;0.50;0.50;;;;;;;;;;4955809;28;20117;-73
2021/05/25 01:39:57;;;;;;;1.15;0.70;;;;;;;;;;4974072;28;20047;-72
2021/05/25 01:42:34;;;;;;;1.40;0.80;;;;;;;;;;4974003;28;20055;-72
2021/05/25 01:45:04;;;;;;;2.60;0.60;;;;;;;;;;4975853;28;20134;-73
2021/05/25 01:47:30;;;;;;;1.85;0.40;;;;;;;;;;4987121;28;20046;-73
2021/05/25 01:50:11;;;;;;;2.03;0.82;;;;;;;;;;4974445;28;20473;-73
2021/05/25 01:53:07;;;;;;;4.70;0.80;;;;;;;;;;4971689;28;20055;-73
2021/05/25 01:55:35;;;;;;;4.15;0.80;;;;;;;;;;4975963;28;20121;-72
2021/05/25 01:58:07;;;;;;;1.73;0.70;;;;;;;;;;4990674;28;20055;-73
2021/05/25 02:00:35;;;;;;;1.90;0.70;;;;;;;;;;5017787;23;20442;-67
2021/05/25 02:03:02;;;;;;;4.38;0.52;;;;;;;;;;5034669;28;20100;-68
2021/05/25 02:05:29;;;;;;;1.48;1.08;;;;;;;;;;5033113;28;20149;-68
2021/05/25 02:07:56;;;;;;;4.75;0.63;;;;;;;;;;5034614;28;20569;-68
2021/05/25 02:10:23;;;;;;;3.92;0.90;;;;;;;;;;5034223;28;20053;-68
2021/05/25 02:12:50;;;;;;;2.50;1.00;;;;;;;;;;5034586;28;20091;-68
2021/05/25 02:15:17;;;;;;;3.45;0.90;;;;;;;;;;5034543;28;20056;-68
2021/05/25 02:17:44;;;;;;;1.63;0.77;;;;;;;;;;5034460;28;20084;-68
2021/05/25 02:20:11;;;;;;;1.65;0.80;;;;;;;;;;5034131;28;20053;-68
2021/05/25 02:22:37;;;;;;;4.93;0.85;;;;;;;;;;5024013;28;20049;-68
2021/05/25 02:25:04;;;;;;;4.93;0.70;;;;;;;;;;5014448;28;20054;-68
2021/05/25 02:27:31;;;;;;;2.22;0.60;;;;;;;;;;5014425;28;20085;-69
2021/05/25 02:29:58;;;;;;;2.67;0.70;;;;;;;;;;5014145;28;20089;-69
2021/05/25 02:32:25;;;;;;;3.80;0.70;;;;;;;;;;5014244;28;20054;-68
2021/05/25 02:34:52;;;;;;;3.53;0.70;;;;;;;;;;5026668;28;20503;-68
2021/05/25 02:37:18;;;;;;;0.90;0.70;;;;;;;;;;5033698;28;20049;-68
2021/05/25 02:39:45;;;;;;;2.05;0.88;;;;;;;;;;5033905;28;20084;-67
2021/05/25 02:42:11;;;;;;;3.17;1.80;;;;;;;;;;5033798;28;20179;-68
2021/05/25 02:44:38;;;;;;;3.30;0.82;;;;;;;;;;5033949;28;20053;-67
2021/05/25 02:47:04;;;;;;;2.95;0.80;;;;;;;;;;5033599;28;20488;-68
2021/05/25 02:49:31;;;;;;;4.38;0.88;;;;;;;;;;5033566;28;20500;-68
2021/05/25 02:51:57;;;;;;;1.70;1.15;;;;;;;;;;5033598;28;20085;-68
2021/05/25 02:54:24;;;;;;;2.47;0.88;;;;;;;;;;5033741;28;20057;-68
2021/05/25 02:56:50;;;;;;;2.67;0.60;;;;;;;;;;5033462;28;20111;-68
2021/05/25 02:59:17;;;;;;;1.00;0.65;;;;;;;;;;5033417;28;20553;-68
2021/05/25 03:01:43;;;;;;;3.80;0.68;;;;;;;;;;5033415;28;20054;-68
2021/05/25 03:04:10;;;;;;;3.03;1.00;;;;;;;;;;5032838;28;20045;-68
2021/05/25 03:06:37;;;;;;;2.75;0.80;;;;;;;;;;5032653;28;20045;-68
2021/05/25 03:09:04;;;;;;;4.18;0.90;;;;;;;;;;5032826;28;20405;-68
2021/05/25 03:11:31;;;;;;;1.23;0.75;;;;;;;;;;5033192;28;20123;-68
2021/05/25 03:13:57;;;;;;;1.30;0.50;;;;;;;;;;5033464;28;20127;-68
2021/05/25 03:16:24;;;;;;;1.80;0.65;;;;;;;;;;5032937;28;20052;-68
2021/05/25 03:18:51;;;;;;;1.95;0.70;;;;;;;;;;5020477;28;20116;-68
2021/05/25 03:21:17;;;;;;;3.28;1.30;;;;;;;;;;5013154;28;20462;-68
2021/05/25 03:23:44;;;;;;;0.88;0.50;;;;;;;;;;5013376;28;20409;-68
2021/05/25 03:26:11;;;;;;;1.00;0.70;;;;;;;;;;5013025;28;20046;-68
2021/05/25 03:28:38;;;;;;;4.13;1.00;;;;;;;;;;5033050;28;20493;-68
2021/05/25 03:31:05;;;;;;;3.40;0.88;;;;;;;;;;5025660;28;20085;-68
2021/05/25 03:33:32;;;;;;;1.45;0.70;;;;;;;;;;5011954;28;20492;-68
2021/05/25 03:35:59;;;;;;;3.13;0.60;;;;;;;;;;5013112;28;20095;-68
2021/05/25 03:38:26;;;;;;;2.92;0.70;;;;;;;;;;5011937;28;20100;-68
2021/05/25 03:40:52;;;;;;;2.50;0.70;;;;;;;;;;5013037;28;20073;-68
2021/05/25 03:43:19;;;;;;;2.13;0.60;;;;;;;;;;5012927;28;20074;-68
2021/05/25 03:45:46;;;;;;;2.00;0.63;;;;;;;;;;5012834;28;20111;-68
2021/05/25 03:48:12;;;;;;;3.22;0.50;;;;;;;;;;5011698;28;20108;-68
2021/05/25 03:50:39;;;;;;;2.53;0.70;;;;;;;;;;5013151;28;20100;-68
2021/05/25 03:53:05;;;;;;;2.17;0.65;;;;;;;;;;5012871;28;20045;-67
2021/05/25 03:55:52;;;;;;;3.33;0.60;;;;;;;;;;5012664;28;20108;-68
2021/05/25 04:01:04;;;;;;;1.90;0.68;;;;;;;;;;5012518;28;20080;-68
2021/05/25 04:03:31;;;;;;;2.20;0.60;;;;;;;;;;5012618;28;20501;-68
2021/05/25 04:05:57;;;;;;;1.95;0.50;;;;;;;;;;5012347;28;20097;-68
2021/05/25 04:08:24;;;;;;;2.22;0.60;;;;;;;;;;5012395;28;20500;-68
2021/05/25 04:10:51;;;;;;;3.90;0.82;;;;;;;;;;5012428;28;20119;-68
2021/05/25 04:13:17;;;;;;;0.68;0.40;;;;;;;;;;5016005;28;20073;-69
2021/05/25 04:15:51;;;;;;;2.75;0.57;;;;;;;;;;5025306;28;20049;-69
2021/05/25 04:18:17;;;;;;;1.23;0.55;;;;;;;;;;5032062;28;20049;-68
2021/05/25 04:20:44;;;;;;;2.67;0.57;;;;;;;;;;5032078;28;20049;-68
2021/05/25 04:23:11;;;;;;;1.80;0.57;;;;;;;;;;5031892;28;20050;-68
2021/05/25 04:25:37;;;;;;;0.68;0.50;;;;;;;;;;5031779;28;20057;-69
2021/05/25 04:28:04;;;;;;;1.60;0.60;;;;;;;;;;5031944;28;20108;-68
2021/05/25 04:30:31;;;;;;;2.60;0.40;;;;;;;;;;5031427;28;20489;-68
2021/05/25 04:32:58;;;;;;;1.80;0.60;;;;;;;;;;5031990;28;20057;-68
2021/05/25 04:35:24;;;;;;;2.20;0.73;;;;;;;;;;5031578;28;20080;-68
2021/05/25 04:37:51;;;;;;;1.92;0.70;;;;;;;;;;5032080;28;20076;-68
2021/05/25 04:40:18;;;;;;;0.88;0.30;;;;;;;;;;5031768;28;20045;-68
2021/05/25 04:42:45;;;;;;;1.33;0.55;;;;;;;;;;5032152;28;20114;-68
2021/05/25 04:45:12;;;;;;;4.03;0.60;;;;;;;;;;5031622;28;20092;-68
2021/05/25 04:47:39;;;;;;;1.27;0.68;;;;;;;;;;5031614;28;20467;-69
2021/05/25 04:50:07;;;;;;;1.75;0.63;;;;;;;;;;5031434;28;20057;-68
2021/05/25 04:52:34;;;;;;;1.50;0.50;;;;;;;;;;5031736;28;20057;-68
2021/05/25 04:55:07;;;;;;;2.03;0.77;;;;;;;;;;5031834;28;20051;-68
2021/05/25 04:57:34;;;;;;;0.40;0.40;;;;;;;;;;5030501;28;20045;-68
2021/05/25 05:00:00;;;;;;;1.02;0.50;;;;;;;;;;5031434;28;20500;-69
2021/05/25 05:02:27;;;;;;;0.77;0.50;;;;;;;;;;5031704;28;20067;-68
2021/05/25 05:04:54;;;;;;;1.70;0.40;;;;;;;;;;5019291;28;20054;-68
2021/05/25 05:07:20;;;;;;;1.83;0.30;;;;;;;;;;5011540;28;20176;-69
2021/05/25 05:09:47;;;;;;;1.42;0.43;;;;;;;;;;5011890;28;20074;-68
2021/05/25 05:12:13;;;;;;;0.75;0.35;;;;;;;;;;5011866;28;20081;-68
2021/05/25 05:14:40;;;;;;;1.27;0.55;;;;;;;;;;5031108;28;20103;-68
2021/05/25 05:17:06;;;;;;;0.60;0.30;;;;;;;;;;5031334;28;20041;-68
2021/05/25 05:19:33;;;;;;;3.25;0.50;;;;;;;;;;5031516;28;20101;-68
2021/05/25 05:21:59;;;;;;;0.95;0.52;;;;;;;;;;5031367;28;20474;-69
2021/05/25 05:24:26;;;;;;;0.85;0.30;;;;;;;;;;5031211;28;20562;-68
2021/05/25 05:26:52;;;;;;;2.38;0.73;;;;;;;;;;5029877;28;20447;-70
2021/05/25 05:29:19;;;;;;;0.93;0.52;;;;;;;;;;5033558;28;20081;-71
2021/05/25 05:31:46;;;;;;;0.30;0.30;;;;;;;;;;5031114;28;20068;-70
2021/05/25 05:34:12;;;;;;;2.28;0.50;;;;;;;;;;5032619;28;20072;-72
2021/05/25 05:36:39;;;;;;;1.90;0.50;;;;;;;;;;5033730;28;20049;-72
2021/05/25 05:39:06;;;;;;;1.42;0.65;;;;;;;;;;5034750;28;20542;-72
2021/05/25 05:41:33;;;;;;;1.13;0.38;;;;;;;;;;5020713;28;20054;-70
2021/05/25 05:43:59;;;;;;;1.40;0.30;;;;;;;;;;5015177;28;20049;-72
2021/05/25 05:46:26;;;;;;;1.17;0.65;;;;;;;;;;5013642;28;20053;-72
2021/05/25 05:48:52;;;;;;;2.05;0.60;;;;;;;;;;5015166;28;20072;-72
2021/05/25 05:51:19;;;;;;;0.70;0.30;;;;;;;;;;5013706;28;20467;-71
2021/05/25 05:53:46;;;;;;;1.42;0.25;;;;;;;;;;5014840;28;20445;-71
2021/05/25 05:56:15;;;;;;;0.95;0.45;;;;;;;;;;5027241;28;20053;-71
2021/05/25 05:58:42;;;;;;;0.85;0.45;;;;;;;;;;4997728;28;20108;-68
2021/05/25 06:01:09;;;;;;;0.35;0.30;;;;;;;;;;5014740;28;20049;-68
2021/05/25 06:03:36;;;;;;;1.48;0.40;;;;;;;;;;5014669;28;20079;-69
2021/05/25 06:06:03;;;;;;;0.90;0.40;;;;;;;;;;5014435;28;20065;-69
2021/05/25 06:08:30;;;;;;;0.57;0.47;;;;;;;;;;5021235;28;20111;-69
2021/05/25 06:10:57;;;;;;;4.07;0.50;;;;;;;;;;5034235;28;20081;-69
2021/05/25 06:13:24;;;;;;;1.75;0.40;;;;;;;;;;5034458;28;20504;-70
2021/05/25 06:15:54;;;;;;;0.85;0.28;;;;;;;;;;5033185;28;20049;-69
2021/05/25 06:18:21;;;;;;;1.05;0.30;;;;;;;;;;5034247;28;20050;-70
2021/05/25 06:20:48;;;;;;;2.20;0.75;;;;;;;;;;5034146;28;20144;-69
2021/05/25 06:23:14;;;;;;;1.30;0.40;;;;;;;;;;5020057;28;20064;-69
2021/05/25 06:25:41;;;;;;;2.10;0.60;;;;;;;;;;5014556;28;20057;-69
2021/05/25 06:28:08;;;;;;;1.63;0.88;;;;;;;;;;5014262;28;20629;-69
2021/05/25 06:30:35;;;;;;;2.03;0.80;;;;;;;;;;5014443;28;20100;-69
2021/05/25 06:33:02;;;;;;;3.65;1.50;;;;;;;;;;5014163;28;20115;-68
2021/05/25 06:35:28;;;;;;;1.65;1.00;;;;;;;;;;5020126;28;20103;-71
2021/05/25 06:37:55;;;;;;;1.70;0.55;;;;;;;;;;5031623;28;20124;-69
2021/05/25 06:40:22;;;;;;;2.25;0.95;;;;;;;;;;5031667;28;20542;-69
2021/05/25 06:42:48;;;;;;;2.75;1.00;;;;;;;;;;5029944;28;20668;-70
2021/05/25 06:45:15;;;;;;;1.50;0.80;;;;;;;;;;5022508;28;20075;-69
2021/05/25 06:47:42;;;;;;;1.65;0.82;;;;;;;;;;5023273;28;20566;-71
2021/05/25 06:50:09;;;;;;;0.60;0.38;;;;;;;;;;5016479;28;20077;-70
2021/05/25 06:52:36;;;;;;;0.80;0.35;;;;;;;;;;5010202;28;20469;-69
2021/05/25 06:55:04;;;;;;;2.42;0.43;;;;;;;;;;5013175;28;20412;-70
2021/05/25 06:57:31;;;;;;;0.73;0.28;;;;;;;;;;5029879;28;20068;-68
2021/05/25 06:59:57;;;;;;;3.38;0.60;;;;;;;;;;5031032;28;20061;-70
2021/05/25 07:02:24;;;;;;;1.10;0.70;;;;;;;;;;5030509;28;20099;-70
2021/05/25 07:04:51;;;;;;;0.88;0.70;;;;;;;;;;5031362;28;20288;-69
2021/05/25 07:07:18;;;;;;;0.65;0.30;;;;;;;;;;5030829;28;20107;-70
2021/05/25 07:09:44;;;;;;;3.47;0.50;;;;;;;;;;5031087;28;20053;-69
2021/05/25 07:12:12;;;;;;;4.05;0.40;;;;;;;;;;5030969;28;20496;-70
2021/05/25 07:14:41;;;;;;;1.20;0.32;;;;;;;;;;5030591;28;20087;-70
2021/05/25 07:17:08;;;;;;;0.93;0.40;;;;;;;;;;5030010;28;20092;-69
2021/05/25 07:19:34;;;;;;;0.32;0.30;;;;;;;;;;5029346;28;20049;-69
2021/05/25 07:22:01;;;;;;;0.68;0.60;;;;;;;;;;5029668;28;20093;-70
2021/05/25 07:24:28;;;;;;;1.10;0.50;;;;;;;;;;5012634;28;20501;-70
2021/05/25 07:26:55;;;;;;;1.25;0.98;;;;;;;;;;5009640;28;20058;-69
2021/05/25 07:29:21;;;;;;;1.52;0.45;;;;;;;;;;5010518;28;20105;-69
2021/05/25 07:31:48;;;;;;;2.17;0.50;;;;;;;;;;5010949;28;20089;-72
2021/05/25 07:34:14;;;;;;;1.45;0.30;;;;;;;;;;5018116;28;20092;-70
2021/05/25 07:36:41;;;;;;;1.67;0.30;;;;;;;;;;5027077;28;20089;-69
2021/05/25 07:39:08;;;;;;;3.72;0.40;;;;;;;;;;5024164;28;20112;-70
2021/05/25 07:41:35;;;;;;;3.50;0.68;;;;;;;;;;5017957;28;20097;-70
2021/05/25 07:44:01;;;;;;;1.25;0.65;;;;;;;;;;5022563;28;20175;-69
2021/05/25 07:46:28;;;;;;;1.35;0.40;;;;;;;;;;5017137;28;20057;-69
2021/05/25 07:48:55;;;;;;;0.60;0.30;;;;;;;;;;5022570;28;20050;-68
2021/05/25 07:51:23;;;;;;;1.42;0.50;;;;;;;;;;5016942;28;20084;-71
2021/05/25 07:53:50;;;;;;;0.45;0.32;;;;;;;;;;5022237;28;20045;-70
2021/05/25 07:56:17;;;;;;;0.82;0.30;;;;;;;;;;5018566;28;20426;-69
2021/05/25 07:58:44;;;;;;;2.42;0.55;;;;;;;;;;5022391;28;20088;-68
2021/05/25 08:01:10;;;;;;;1.40;0.38;;;;;;;;;;5045814;22;20068;-75
2021/05/25 08:03:37;;;;;;;1.27;0.40;;;;;;;;;;5042590;28;20480;-75
2021/05/25 08:06:04;;;;;;;1.70;0.43;;;;;;;;;;5028302;28;20045;-75
2021/05/25 08:08:33;;;;;;;2.63;0.40;;;;;;;;;;5034693;28;20099;-79
2021/05/25 08:11:00;;;;;;;1.33;0.30;;;;;;;;;;5029120;28;20076;-79
2021/05/25 08:13:29;;;;;;;0.88;0.38;;;;;;;;;;5030079;28;20057;-81
2021/05/25 08:15:59;;;;;;;2.40;0.45;;;;;;;;;;5019856;28;20050;-80
2021/05/25 08:19:34;;;;;;;0.90;0.30;;;;;;;;;;5014696;28;20045;-80
2021/05/25 08:22:53;;;;;;;1.60;0.52;;;;;;;;;;5010220;28;20068;-79
2021/05/25 08:25:37;;;;;;;1.42;0.30;;;;;;;;;;4980237;28;20055;-79
2021/05/25 08:28:10;;;;;;;0.90;0.50;;;;;;;;;;4962558;28;20433;-77
2021/05/25 08:30:40;;;;;;;1.95;0.40;;;;;;;;;;4989524;28;20085;-75
2021/05/25 08:33:09;;;;;;;3.10;0.65;;;;;;;;;;4973453;28;20082;-75
2021/05/25 08:35:38;;;;;;;3.70;1.40;;;;;;;;;;4970880;28;20046;-75
2021/05/25 08:38:06;;;;;;;3.78;0.40;;;;;;;;;;4989330;28;20097;-74
2021/05/25 08:40:34;;;;;;;0.70;0.30;;;;;;;;;;4972926;28;20054;-74
2021/05/25 08:43:00;;;;;;;2.88;0.60;;;;;;;;;;4972242;28;20089;-74
2021/05/25 08:45:27;;;;;;;1.23;0.40;;;;;;;;;;4988849;28;20096;-77
2021/05/25 08:47:55;;;;;;;1.65;0.40;;;;;;;;;;4976180;28;20042;-78
2021/05/25 08:50:42;;;;;;;0.25;0.20;;;;;;;;;;5006109;28;20089;-79
2021/05/25 08:53:09;;;;;;;2.80;0.30;;;;;;;;;;5021187;28;20459;-77
2021/05/25 08:55:36;;;;;;;2.42;0.40;;;;;;;;;;5031623;28;20046;-78
2021/05/25 08:58:05;;;;;;;1.65;1.08;;;;;;;;;;5014701;28;20069;-77
2021/05/25 09:00:33;;;;;;;1.63;0.30;;;;;;;;;;5012222;28;20108;-76
2021/05/25 09:03:00;;;;;;;11.05;0.88;;;;;;;;;;5023976;28;20119;-76
2021/05/25 09:05:27;;;;;;;1.73;0.70;;;;;;;;;;5029365;28;20428;-76
2021/05/25 09:07:56;;;;;;;1.60;0.17;;;;;;;;;;5022479;28;20451;-77
2021/05/25 09:10:42;;;;;;;1.02;0.35;;;;;;;;;;5026304;28;20053;-77
2021/05/25 09:13:22;;;;;;;2.95;0.30;;;;;;;;;;5022969;28;20111;-77
2021/05/25 09:15:55;;;;;;;1.90;0.50;;;;;;;;;;5030944;28;20132;-77
2021/05/25 09:18:24;;;;;;;0.82;0.40;;;;;;;;;;5007861;28;20080;-75
2021/05/25 09:21:00;;;;;;;1.33;0.28;;;;;;;;;;5028500;28;20520;-79
2021/05/25 09:23:33;;;;;;;1.75;0.40;;;;;;;;;;5003250;28;20049;-80
2021/05/25 09:26:13;;;;;;;2.35;0.52;;;;;;;;;;5026740;28;20053;-77
2021/05/25 09:29:03;;;;;;;1.00;0.52;;;;;;;;;;5025102;28;20482;-77
2021/05/25 09:31:36;;;;;;;1.77;0.57;;;;;;;;;;5026677;28;20528;-78
2021/05/25 09:34:11;;;;;;;1.25;0.60;;;;;;;;;;5035180;28;20041;-78
2021/05/25 09:37:04;;;;;;;2.70;1.10;;;;;;;;;;4999446;28;20080;-76
2021/05/25 09:39:35;;;;;;;1.02;0.43;;;;;;;;;;5029549;28;20056;-76
2021/05/25 09:42:05;;;;;;;0.80;0.30;;;;;;;;;;5025759;28;20050;-81
2021/05/25 09:44:33;;;;;;;3.55;0.68;;;;;;;;;;4999440;28;20052;-77
2021/05/25 09:47:02;;;;;;;2.58;0.55;;;;;;;;;;5028908;28;20049;-74
2021/05/25 09:49:28;;;;;;;1.15;0.50;;;;;;;;;;5020919;28;20140;-75
2021/05/25 09:52:05;;;;;;;0.40;0.30;;;;;;;;;;5022798;28;20045;-73
2021/05/25 09:54:33;;;;;;;3.35;0.55;;;;;;;;;;5023110;28;20081;-73
2021/05/25 09:57:07;;;;;;;1.45;0.50;;;;;;;;;;5028839;28;20050;-72
2021/05/25 09:59:35;;;;;;;1.38;0.40;;;;;;;;;;5021421;28;20063;-76
2021/05/25 10:02:16;;;;;;;2.45;0.50;;;;;;;;;;4997208;28;20496;-74
2021/05/25 10:05:03;;;;;;;1.27;0.30;;;;;;;;;;5021704;28;20131;-75
2021/05/25 10:07:29;;;;;;;3.95;0.70;;;;;;;;;;5026260;28;20111;-74
2021/05/25 10:09:57;;;;;;;2.25;0.45;;;;;;;;;;5022291;28;20042;-75
2021/05/25 10:12:26;;;;;;;0.98;0.50;;;;;;;;;;5011183;28;21106;-76
2021/05/25 10:14:53;;;;;;;3.10;0.50;;;;;;;;;;5019880;28;20041;-78
2021/05/25 10:17:42;;;;;;;3.30;0.75;;;;;;;;;;5029122;28;20111;-77
2021/05/25 10:20:08;;;;;;;2.75;0.90;;;;;;;;;;5018183;28;20054;-77
2021/05/25 10:22:38;;;;;;;3.30;1.27;;;;;;;;;;5027899;28;20092;-75
2021/05/25 10:25:12;;;;;;;1.40;0.80;;;;;;;;;;5020516;28;20054;-76
2021/05/25 10:27:39;;;;;;;7.45;1.13;;;;;;;;;;5005054;28;20115;-73
2021/05/25 10:30:25;;;;;;;1.92;0.82;;;;;;;;;;5013580;28;20049;-76
2021/05/25 10:33:12;;;;;;;2.00;0.80;;;;;;;;;;5022483;28;20394;-75
2021/05/25 10:35:56;;;;;;;2.08;0.75;;;;;;;;;;5021236;28;20050;-76
2021/05/25 10:38:25;;;;;;;1.92;0.80;;;;;;;;;;5018840;28;20420;-72
2021/05/25 10:40:59;;;;;;;3.35;0.43;;;;;;;;;;5021245;28;20091;-75
2021/05/25 10:43:32;;;;;;;2.60;0.57;;;;;;;;;;5021135;28;20531;-74
2021/05/25 10:46:11;;;;;;;2.50;0.55;;;;;;;;;;5020441;28;20080;-73
2021/05/25 10:51:45;;;;;;;3.03;0.60;;;;;;;;;;5023397;28;20103;-75
2021/05/25 10:54:38;;;;;;;1.65;0.35;;;;;;;;;;5028989;28;20493;-74
2021/05/25 10:57:35;;;;;;;1.85;1.00;;;;;;;;;;5027815;28;20053;-74
2021/05/25 11:00:06;;;;;;;3.58;0.60;;;;;;;;;;5023608;28;20049;-75
2021/05/25 11:02:46;;;;;;;2.55;0.70;;;;;;;;;;5023568;28;20489;-75
2021/05/25 11:05:30;;;;;;;1.15;0.60;;;;;;;;;;5020508;28;20042;-74
2021/05/25 11:08:10;;;;;;;2.58;0.85;;;;;;;;;;5023372;28;20105;-77
2021/05/25 11:10:48;;;;;;;3.28;0.75;;;;;;;;;;5021155;28;20108;-77
2021/05/25 11:13:29;;;;;;;3.03;0.85;;;;;;;;;;5012573;28;20123;-78
2021/05/25 11:16:16;;;;;;;1.10;0.40;;;;;;;;;;5018355;28;20080;-81
2021/05/25 11:18:53;;;;;;;1.73;0.30;;;;;;;;;;5028756;28;20042;-76
2021/05/25 11:24:36;;;;;;;2.10;0.50;;;;;;;;;;5020271;28;20050;-76
2021/05/25 11:27:09;;;;;;;3.72;0.80;;;;;;;;;;5022076;28;20107;-79
2021/05/25 11:29:49;;;;;;;5.97;0.70;;;;;;;;;;4996216;28;20100;-78
2021/05/25 11:32:26;;;;;;;2.40;0.70;;;;;;;;;;5028503;28;20053;-76
2021/05/25 11:35:04;;;;;;;1.58;0.60;;;;;;;;;;5022393;28;20049;-77
2021/05/25 11:37:38;;;;;;;2.72;0.60;;;;;;;;;;5019486;28;20076;-75
2021/05/25 11:40:07;;;;;;;2.45;0.63;;;;;;;;;;5021136;28;20050;-75
2021/05/25 11:42:34;;;;;;;2.28;0.50;;;;;;;;;;5021442;28;20112;-75
2021/05/25 11:45:01;;;;;;;1.77;0.40;;;;;;;;;;5003879;28;20140;-75
2021/05/25 11:47:28;;;;;;;0.85;0.40;;;;;;;;;;5027952;28;20493;-76
2021/05/25 11:49:55;;;;;;;2.35;0.47;;;;;;;;;;5031295;28;20077;-77
2021/05/25 11:52:24;;;;;;;2.90;1.05;;;;;;;;;;5033426;28;20052;-75
2021/05/25 11:55:12;;;;;;;2.22;0.43;;;;;;;;;;5032654;28;20050;-73
2021/05/25 11:57:40;;;;;;;1.58;0.63;;;;;;;;;;5045113;28;20053;-76
2021/05/25 12:00:10;;;;;;;3.17;0.60;;;;;;;;;;5012113;28;20104;-74
2021/05/25 12:02:38;;;;;;;1.55;0.45;;;;;;;;;;5012839;28;20054;-77
2021/05/25 12:05:09;;;;;;;1.38;0.50;;;;;;;;;;5011188;28;20133;-76
2021/05/25 12:07:37;;;;;;;1.92;0.45;;;;;;;;;;5014049;28;20115;-75
2021/05/25 12:10:09;;;;;;;4.82;0.80;;;;;;;;;;5020153;28;20455;-75
2021/05/25 12:12:44;;;;;;;1.80;0.63;;;;;;;;;;5005344;28;20069;-77
2021/05/25 12:15:22;;;;;;;3.03;0.70;;;;;;;;;;5041139;28;20046;-75
2021/05/25 12:17:54;;;;;;;3.05;0.50;;;;;;;;;;5005247;28;20196;-77
2021/05/25 12:20:24;;;;;;;0.98;0.70;;;;;;;;;;5009804;28;20053;-74
2021/05/25 12:22:53;;;;;;;2.55;0.50;;;;;;;;;;5018973;28;20068;-73
2021/05/25 12:25:26;;;;;;;6.78;0.60;;;;;;;;;;5021154;28;20415;-73
2021/05/25 12:28:33;;;;;;;2.20;0.85;;;;;;;;;;5021038;28;20053;-74
2021/05/25 12:31:11;;;;;;;1.92;0.50;;;;;;;;;;5004904;23;20115;-72
2021/05/25 12:33:39;;;;;;;0.60;0.40;;;;;;;;;;5045623;28;20566;-72
2021/05/25 12:36:21;;;;;;;3.47;1.33;;;;;;;;;;5029483;28;20096;-72
2021/05/25 12:39:03;;;;;;;0.73;0.40;;;;;;;;;;5030819;28;20037;-72
2021/05/25 12:41:39;;;;;;;1.33;0.50;;;;;;;;;;5030495;28;20049;-72
2021/05/25 12:44:12;;;;;;;3.85;0.60;;;;;;;;;;5029811;28;20053;-73
2021/05/25 12:46:50;;;;;;;2.28;0.60;;;;;;;;;;5030331;28;20145;-72
2021/05/25 12:49:29;;;;;;;1.23;0.60;;;;;;;;;;5030842;28;20416;-72
2021/05/25 12:52:17;;;;;;;0.95;0.43;;;;;;;;;;5046115;28;20103;-73
2021/05/25 12:54:53;;;;;;;3.47;1.20;;;;;;;;;;5029781;28;20558;-73
2021/05/25 12:57:21;;;;;;;2.92;0.45;;;;;;;;;;5029887;28;20492;-73
2021/05/25 13:00:01;;;;;;;1.90;0.60;;;;;;;;;;5046369;28;20566;-72
2021/05/25 13:02:38;;;;;;;1.27;0.68;;;;;;;;;;5030251;28;20053;-73
2021/05/25 13:05:07;;;;;;;2.60;0.40;;;;;;;;;;5031689;28;20492;-73
2021/05/25 13:07:59;;;;;;;2.42;0.82;;;;;;;;;;5030239;28;20053;-72
2021/05/25 13:10:37;;;;;;;2.80;0.60;;;;;;;;;;5031502;28;20167;-72
2021/05/25 13:13:23;;;;;;;2.10;0.40;;;;;;;;;;5031714;28;20141;-72
2021/05/25 13:15:51;;;;;;;2.30;0.40;;;;;;;;;;5046834;28;20053;-73
2021/05/25 13:18:37;;;;;;;2.53;0.68;;;;;;;;;;5031017;28;20049;-73
2021/05/25 13:21:04;;;;;;;1.38;0.50;;;;;;;;;;5030521;28;20095;-72
2021/05/25 13:23:32;;;;;;;1.48;0.93;;;;;;;;;;5031521;28;20459;-72
2021/05/25 13:28:57;;;;;;;2.25;0.40;;;;;;;;;;5031704;28;20041;-77
2021/05/25 13:31:30;;;;;;;4.00;0.95;;;;;;;;;;5031273;28;20058;-73
2021/05/25 13:33:57;;;;;;;2.38;0.45;;;;;;;;;;5021555;28;20097;-71
2021/05/25 13:36:26;;;;;;;2.05;0.50;;;;;;;;;;5011823;28;20049;-72
2021/05/25 13:42:36;;;;;;;1.92;0.30;;;;;;;;;;5046117;23;20053;-78
2021/05/25 13:45:03;;;;;;;0.65;0.40;;;;;;;;;;5015050;28;20069;-78
2021/05/25 13:47:30;;;;;;;1.42;0.60;;;;;;;;;;5013196;28;20049;-78
2021/05/25 13:49:58;;;;;;;2.40;0.43;;;;;;;;;;5031548;28;20053;-78
2021/05/25 13:52:30;;;;;;;1.40;0.50;;;;;;;;;;5034933;28;20057;-78
2021/05/25 13:54:56;;;;;;;0.95;0.40;;;;;;;;;;5035180;28;20072;-78
2021/05/25 13:57:25;;;;;;;2.08;0.70;;;;;;;;;;5012632;28;20180;-77
2021/05/25 14:00:10;;;;;;;4.85;1.00;;;;;;;;;;5034028;28;20046;-78
2021/05/25 14:02:36;;;;;;;3.92;0.65;;;;;;;;;;5034002;28;20494;-78
2021/05/25 14:05:05;;;;;;;1.95;0.50;;;;;;;;;;5054418;22;20049;-72
2021/05/25 14:07:34;;;;;;;8.35;0.80;;;;;;;;;;5047995;28;20049;-72
2021/05/25 14:10:04;;;;;;;0.85;0.30;;;;;;;;;;5030320;28;20057;-71
2021/05/25 14:12:30;;;;;;;3.33;0.60;;;;;;;;;;5015332;28;20049;-72
2021/05/25 14:14:57;;;;;;;1.23;0.30;;;;;;;;;;5032349;28;20060;-74
2021/05/25 14:17:24;;;;;;;2.55;0.57;;;;;;;;;;5031596;28;20053;-71
2021/05/25 14:19:50;;;;;;;1.60;0.60;;;;;;;;;;5032152;28;20091;-73
2021/05/25 14:22:17;;;;;;;1.05;0.43;;;;;;;;;;5031007;28;20133;-72
2021/05/25 14:24:46;;;;;;;1.75;0.40;;;;;;;;;;5033417;28;20053;-73
2021/05/25 14:27:13;;;;;;;0.75;0.55;;;;;;;;;;5025726;28;20057;-72
2021/05/25 14:29:39;;;;;;;2.25;0.60;;;;;;;;;;5018689;28;20554;-73
2021/05/25 14:32:06;;;;;;;3.30;0.70;;;;;;;;;;5032304;28;20471;-72
2021/05/25 14:34:33;;;;;;;2.33;0.40;;;;;;;;;;5015304;28;20103;-72
2021/05/25 14:37:00;;;;;;;3.38;0.60;;;;;;;;;;4999406;28;20077;-71
2021/05/25 14:39:26;;;;;;;0.63;0.30;;;;;;;;;;5032795;28;20053;-72
2021/05/25 14:42:00;;;;;;;1.45;0.40;;;;;;;;;;5031440;28;20052;-72
2021/05/25 14:44:30;;;;;;;2.55;0.57;;;;;;;;;;5015102;28;20099;-72
2021/05/25 14:50:32;;;;;;;2.03;0.50;;;;;;;;;;5031318;28;20041;-73
2021/05/25 14:53:07;;;;;;;3.88;1.00;;;;;;;;;;5029999;28;20488;-72
2021/05/25 14:55:34;;;;;;;2.15;0.70;;;;;;;;;;5109413;23;20045;-72
2021/05/25 14:58:07;;;;;;;2.85;0.60;;;;;;;;;;5029938;28;20046;-72
2021/05/25 15:00:46;;;;;;;1.13;0.40;;;;;;;;;;5031576;28;20049;-72
2021/05/25 15:03:22;;;;;;;0.30;0.30;;;;;;;;;;5021821;28;20054;-72
2021/05/25 15:09:28;;;;;;;2.67;0.55;;;;;;;;;;4936424;29;19926;-73
2021/05/25 15:11:55;;;;;;;2.08;0.60;;;;;;;;;;4953302;29;20058;-73
2021/05/25 15:14:22;;;;;;;1.85;0.40;;;;;;;;;;4952706;28;20047;-71
2021/05/25 15:16:49;;;;;;;2.83;0.55;;;;;;;;;;4921234;29;20054;-71
2021/05/25 15:19:16;;;;;;;2.25;0.82;;;;;;;;;;4952660;28;20047;-72
2021/05/25 15:21:42;;;;;;;1.55;0.50;;;;;;;;;;4936997;29;20051;-72
2021/05/25 15:24:09;;;;;;;2.28;0.50;;;;;;;;;;4936385;29;20533;-71